Weather at Visund A Helipad

Public forecast

Using degrees Celsius for public forecast. Weather courtesy of forecast.io.

Closest aviation weather report (METAR) to Visund A Helipad

Closest report is Snorre A Helipad, 10.2 nm (18.9 km) WNW.

2024/07/21 04:50 (retrieved 15 minutes ago)

ENSE 210450Z AUTO 13015KT 9999 BKN038/// 16/13 Q1002 W///S4

Closest aviation forecast (TAF) to Visund A Helipad

Forecast is more than 12 hours old.

Closest forecast is Kangiqsujuaq (Wakeham Bay) Airport, 2,014.6 nm (3,731.0 km) NW.

2024/07/20 15:42 Ammendment (retrieved 13 hours ago)

TAF AMD TAF AMD CYKG 201940Z 2015/2021 CNL RMK NO OBS NXT FCST BY 211400Z